sensor_id;sensor_type;location;lat;lon;timestamp;P1;durP1;ratioP1;P2;durP2;ratioP2
58982;SDS011;44771;49.982;8.560;2023-07-13T00:02:01;19.30;;;18.33;;
58982;SDS011;44771;49.982;8.560;2023-07-13T00:07:03;30.65;;;29.05;;
58982;SDS011;44771;49.982;8.560;2023-07-13T00:12:19;28.27;;;26.62;;
58982;SDS011;44771;49.982;8.560;2023-07-13T00:17:24;32.15;;;30.45;;
58982;SDS011;44771;49.982;8.560;2023-07-13T00:22:26;36.28;;;34.22;;
58982;SDS011;44771;49.982;8.560;2023-07-13T00:27:30;37.20;;;35.28;;
58982;SDS011;44771;49.982;8.560;2023-07-13T00:32:32;27.58;;;25.90;;
58982;SDS011;44771;49.982;8.560;2023-07-13T00:37:34;22.98;;;21.37;;
58982;SDS011;44771;49.982;8.560;2023-07-13T00:42:38;23.70;;;22.50;;
58982;SDS011;44771;49.982;8.560;2023-07-13T00:47:40;158.05;;;55.70;;
58982;SDS011;44771;49.982;8.560;2023-07-13T00:52:50;21.33;;;20.12;;
58982;SDS011;44771;49.982;8.560;2023-07-13T00:57:56;19.02;;;17.83;;
58982;SDS011;44771;49.982;8.560;2023-07-13T01:02:59;13.18;;;12.48;;
58982;SDS011;44771;49.982;8.560;2023-07-13T01:08:01;13.95;;;13.15;;
58982;SDS011;44771;49.982;8.560;2023-07-13T01:13:06;142.77;;;91.85;;
58982;SDS011;44771;49.982;8.560;2023-07-13T01:18:10;22.67;;;21.30;;
58982;SDS011;44771;49.982;8.560;2023-07-13T01:23:14;16.85;;;15.95;;
58982;SDS011;44771;49.982;8.560;2023-07-13T01:28:16;14.32;;;13.15;;
58982;SDS011;44771;49.982;8.560;2023-07-13T01:33:19;24.70;;;22.98;;
58982;SDS011;44771;49.982;8.560;2023-07-13T01:38:23;14.82;;;13.82;;
58982;SDS011;44771;49.982;8.560;2023-07-13T01:43:25;15.10;;;14.00;;
58982;SDS011;44771;49.982;8.560;2023-07-13T01:48:27;15.60;;;14.57;;
58982;SDS011;44771;49.982;8.560;2023-07-13T01:53:30;14.30;;;13.48;;
58982;SDS011;44771;49.982;8.560;2023-07-13T01:58:32;15.75;;;14.77;;
58982;SDS011;44771;49.982;8.560;2023-07-13T02:03:34;13.00;;;12.30;;
58982;SDS011;44771;49.982;8.560;2023-07-13T02:08:37;22.05;;;20.52;;
58982;SDS011;44771;49.982;8.560;2023-07-13T02:13:39;149.32;;;114.32;;
58982;SDS011;44771;49.982;8.560;2023-07-13T02:18:40;15.13;;;14.23;;
58982;SDS011;44771;49.982;8.560;2023-07-13T02:23:43;446.70;;;183.55;;
58982;SDS011;44771;49.982;8.560;2023-07-13T02:28:45;18.90;;;18.00;;
58982;SDS011;44771;49.982;8.560;2023-07-13T02:33:47;22.40;;;21.30;;
58982;SDS011;44771;49.982;8.560;2023-07-13T02:38:50;15.27;;;14.48;;
58982;SDS011;44771;49.982;8.560;2023-07-13T02:43:52;16.27;;;15.38;;
58982;SDS011;44771;49.982;8.560;2023-07-13T02:48:54;29.60;;;27.95;;
58982;SDS011;44771;49.982;8.560;2023-07-13T02:53:57;46.47;;;43.90;;
58982;SDS011;44771;49.982;8.560;2023-07-13T02:58:58;437.62;;;167.20;;
58982;SDS011;44771;49.982;8.560;2023-07-13T03:04:00;27.20;;;25.80;;
58982;SDS011;44771;49.982;8.560;2023-07-13T03:09:03;55.78;;;52.65;;
58982;SDS011;44771;49.982;8.560;2023-07-13T03:14:05;21.80;;;20.70;;
58982;SDS011;44771;49.982;8.560;2023-07-13T03:19:07;18.65;;;17.75;;
58982;SDS011;44771;49.982;8.560;2023-07-13T03:24:10;20.27;;;19.25;;
58982;SDS011;44771;49.982;8.560;2023-07-13T03:29:12;63.53;;;54.35;;
58982;SDS011;44771;49.982;8.560;2023-07-13T03:34:14;40.12;;;35.75;;
58982;SDS011;44771;49.982;8.560;2023-07-13T03:39:17;1.52;;;1.52;;
58982;SDS011;44771;49.982;8.560;2023-07-13T03:44:19;21.70;;;20.60;;
58982;SDS011;44771;49.982;8.560;2023-07-13T03:49:21;29.48;;;26.17;;
58982;SDS011;44771;49.982;8.560;2023-07-13T03:54:24;19.12;;;18.02;;
58982;SDS011;44771;49.982;8.560;2023-07-13T03:59:26;19.37;;;18.42;;
58982;SDS011;44771;49.982;8.560;2023-07-13T04:04:27;19.77;;;18.87;;
58982;SDS011;44771;49.982;8.560;2023-07-13T04:09:31;21.90;;;18.25;;
58982;SDS011;44771;49.982;8.560;2023-07-13T04:14:32;21.27;;;19.83;;
58982;SDS011;44771;49.982;8.560;2023-07-13T04:19:34;18.65;;;17.65;;
58982;SDS011;44771;49.982;8.560;2023-07-13T04:24:37;303.77;;;111.10;;
58982;SDS011;44771;49.982;8.560;2023-07-13T04:29:39;19.15;;;18.23;;
58982;SDS011;44771;49.982;8.560;2023-07-13T04:34:41;67.68;;;27.05;;
58982;SDS011;44771;49.982;8.560;2023-07-13T04:39:44;20.55;;;19.55;;
58982;SDS011;44771;49.982;8.560;2023-07-13T04:44:47;28.58;;;26.98;;
58982;SDS011;44771;49.982;8.560;2023-07-13T04:49:49;74.65;;;67.30;;
58982;SDS011;44771;49.982;8.560;2023-07-13T04:54:52;20.20;;;19.17;;
58982;SDS011;44771;49.982;8.560;2023-07-13T04:59:54;20.88;;;19.60;;
58982;SDS011;44771;49.982;8.560;2023-07-13T05:04:55;54.83;;;30.67;;
58982;SDS011;44771;49.982;8.560;2023-07-13T05:09:58;17.58;;;16.60;;
58982;SDS011;44771;49.982;8.560;2023-07-13T05:15:01;19.45;;;18.45;;
58982;SDS011;44771;49.982;8.560;2023-07-13T05:20:03;20.00;;;18.92;;
58982;SDS011;44771;49.982;8.560;2023-07-13T05:25:07;21.17;;;19.98;;
58982;SDS011;44771;49.982;8.560;2023-07-13T05:30:09;20.08;;;19.12;;
58982;SDS011;44771;49.982;8.560;2023-07-13T05:35:11;18.90;;;17.83;;
58982;SDS011;44771;49.982;8.560;2023-07-13T05:40:14;36.72;;;21.98;;
58982;SDS011;44771;49.982;8.560;2023-07-13T05:45:16;20.52;;;19.30;;
58982;SDS011;44771;49.982;8.560;2023-07-13T05:50:18;36.83;;;32.15;;
58982;SDS011;44771;49.982;8.560;2023-07-13T05:55:21;18.08;;;17.15;;
58982;SDS011;44771;49.982;8.560;2023-07-13T06:00:23;24.23;;;18.20;;
58982;SDS011;44771;49.982;8.560;2023-07-13T06:05:25;34.38;;;30.77;;
58982;SDS011;44771;49.982;8.560;2023-07-13T06:10:28;171.57;;;136.57;;
58982;SDS011;44771;49.982;8.560;2023-07-13T06:15:30;1.95;;;1.95;;
58982;SDS011;44771;49.982;8.560;2023-07-13T06:20:33;2.40;;;2.30;;
58982;SDS011;44771;49.982;8.560;2023-07-13T06:25:36;2.30;;;2.20;;
58982;SDS011;44771;49.982;8.560;2023-07-13T06:30:38;3.15;;;2.95;;
58982;SDS011;44771;49.982;8.560;2023-07-13T06:35:40;3.70;;;3.50;;
58982;SDS011;44771;49.982;8.560;2023-07-13T06:40:43;6.57;;;6.28;;
58982;SDS011;44771;49.982;8.560;2023-07-13T06:45:46;6.35;;;6.05;;
58982;SDS011;44771;49.982;8.560;2023-07-13T06:50:48;174.20;;;159.25;;
58982;SDS011;44771;49.982;8.560;2023-07-13T06:55:53;7.55;;;7.25;;
58982;SDS011;44771;49.982;8.560;2023-07-13T07:00:55;14.43;;;13.73;;
58982;SDS011;44771;49.982;8.560;2023-07-13T07:05:59;12.77;;;12.10;;
58982;SDS011;44771;49.982;8.560;2023-07-13T07:11:03;13.43;;;12.83;;
58982;SDS011;44771;49.982;8.560;2023-07-13T07:16:05;15.23;;;14.52;;
58982;SDS011;44771;49.982;8.560;2023-07-13T07:21:07;15.43;;;14.63;;
58982;SDS011;44771;49.982;8.560;2023-07-13T07:26:11;16.02;;;15.13;;
58982;SDS011;44771;49.982;8.560;2023-07-13T07:31:12;15.77;;;14.98;;
58982;SDS011;44771;49.982;8.560;2023-07-13T07:36:17;22.17;;;20.58;;
58982;SDS011;44771;49.982;8.560;2023-07-13T07:41:23;15.90;;;15.20;;
58982;SDS011;44771;49.982;8.560;2023-07-13T07:46:28;19.10;;;18.10;;
58982;SDS011;44771;49.982;8.560;2023-07-13T07:51:30;17.35;;;16.55;;
58982;SDS011;44771;49.982;8.560;2023-07-13T07:56:33;44.15;;;41.35;;
58982;SDS011;44771;49.982;8.560;2023-07-13T08:01:38;29.63;;;28.02;;
58982;SDS011;44771;49.982;8.560;2023-07-13T08:06:42;22.35;;;21.25;;
58982;SDS011;44771;49.982;8.560;2023-07-13T08:11:47;12.05;;;11.48;;
58982;SDS011;44771;49.982;8.560;2023-07-13T08:16:52;106.12;;;58.42;;
58982;SDS011;44771;49.982;8.560;2023-07-13T08:21:53;112.53;;;104.57;;
58982;SDS011;44771;49.982;8.560;2023-07-13T08:26:57;98.80;;;37.40;;
58982;SDS011;44771;49.982;8.560;2023-07-13T08:31:58;40.03;;;37.80;;
58982;SDS011;44771;49.982;8.560;2023-07-13T08:37:01;58.95;;;53.80;;
58982;SDS011;44771;49.982;8.560;2023-07-13T08:42:04;28.45;;;27.05;;
58982;SDS011;44771;49.982;8.560;2023-07-13T08:47:12;39.30;;;37.40;;
58982;SDS011;44771;49.982;8.560;2023-07-13T08:52:17;26.10;;;24.83;;
58982;SDS011;44771;49.982;8.560;2023-07-13T08:57:31;25.95;;;24.55;;
58982;SDS011;44771;49.982;8.560;2023-07-13T09:02:38;24.87;;;23.58;;
58982;SDS011;44771;49.982;8.560;2023-07-13T09:07:52;22.20;;;21.00;;
58982;SDS011;44771;49.982;8.560;2023-07-13T09:13:11;26.92;;;25.62;;
58982;SDS011;44771;49.982;8.560;2023-07-13T09:18:25;27.42;;;26.08;;
58982;SDS011;44771;49.982;8.560;2023-07-13T09:23:29;24.73;;;23.52;;
58982;SDS011;44771;49.982;8.560;2023-07-13T09:28:35;29.33;;;27.92;;
58982;SDS011;44771;49.982;8.560;2023-07-13T09:33:40;29.73;;;28.00;;
58982;SDS011;44771;49.982;8.560;2023-07-13T09:38:42;23.65;;;22.50;;
58982;SDS011;44771;49.982;8.560;2023-07-13T09:44:06;26.85;;;25.50;;
58982;SDS011;44771;49.982;8.560;2023-07-13T09:49:09;20.27;;;19.12;;
58982;SDS011;44771;49.982;8.560;2023-07-13T09:54:18;26.48;;;25.17;;
58982;SDS011;44771;49.982;8.560;2023-07-13T09:59:23;26.23;;;24.90;;
58982;SDS011;44771;49.982;8.560;2023-07-13T10:04:30;26.62;;;25.23;;
58982;SDS011;44771;49.982;8.560;2023-07-13T10:09:33;27.13;;;25.55;;
58982;SDS011;44771;49.982;8.560;2023-07-13T10:14:37;23.83;;;22.62;;
58982;SDS011;44771;49.982;8.560;2023-07-13T10:19:39;28.42;;;27.05;;
58982;SDS011;44771;49.982;8.560;2023-07-13T10:24:43;28.33;;;26.93;;
58982;SDS011;44771;49.982;8.560;2023-07-13T10:29:47;21.70;;;20.65;;
58982;SDS011;44771;49.982;8.560;2023-07-13T10:34:51;20.42;;;19.35;;
58982;SDS011;44771;49.982;8.560;2023-07-13T10:39:54;18.67;;;17.58;;
58982;SDS011;44771;49.982;8.560;2023-07-13T10:50:01;22.00;;;20.90;;
58982;SDS011;44771;49.982;8.560;2023-07-13T10:55:05;23.70;;;22.40;;
58982;SDS011;44771;49.982;8.560;2023-07-13T11:00:31;21.62;;;20.52;;
58982;SDS011;44771;49.982;8.560;2023-07-13T11:05:33;24.98;;;23.35;;
58982;SDS011;44771;49.982;8.560;2023-07-13T11:10:48;139.40;;;72.28;;
58982;SDS011;44771;49.982;8.560;2023-07-13T11:15:53;25.12;;;23.73;;
58982;SDS011;44771;49.982;8.560;2023-07-13T11:26:40;20.27;;;19.27;;
58982;SDS011;44771;49.982;8.560;2023-07-13T11:31:44;25.98;;;24.63;;
58982;SDS011;44771;49.982;8.560;2023-07-13T11:36:53;50.10;;;47.30;;
58982;SDS011;44771;49.982;8.560;2023-07-13T11:41:57;41.37;;;39.30;;
58982;SDS011;44771;49.982;8.560;2023-07-13T11:47:09;24.75;;;23.50;;
58982;SDS011;44771;49.982;8.560;2023-07-13T11:52:12;84.05;;;65.18;;
58982;SDS011;44771;49.982;8.560;2023-07-13T11:57:20;29.00;;;27.48;;
58982;SDS011;44771;49.982;8.560;2023-07-13T12:02:29;48.80;;;45.92;;
58982;SDS011;44771;49.982;8.560;2023-07-13T12:07:33;32.45;;;30.30;;
58982;SDS011;44771;49.982;8.560;2023-07-13T12:12:36;29.73;;;28.20;;
58982;SDS011;44771;49.982;8.560;2023-07-13T12:17:40;47.78;;;45.20;;
58982;SDS011;44771;49.982;8.560;2023-07-13T12:22:45;35.55;;;33.70;;
58982;SDS011;44771;49.982;8.560;2023-07-13T12:27:47;35.10;;;33.35;;
58982;SDS011;44771;49.982;8.560;2023-07-13T12:32:58;50.03;;;47.33;;
58982;SDS011;44771;49.982;8.560;2023-07-13T12:38:02;1999.90;;;999.90;;
58982;SDS011;44771;49.982;8.560;2023-07-13T12:43:03;1999.90;;;999.90;;
58982;SDS011;44771;49.982;8.560;2023-07-13T12:48:12;1999.90;;;999.90;;
58982;SDS011;44771;49.982;8.560;2023-07-13T12:53:18;1999.90;;;999.90;;
58982;SDS011;44771;49.982;8.560;2023-07-13T12:58:24;320.75;;;289.98;;
58982;SDS011;44771;49.982;8.560;2023-07-13T13:03:30;26.50;;;25.08;;
58982;SDS011;44771;49.982;8.560;2023-07-13T13:08:34;51.90;;;30.33;;
58982;SDS011;44771;49.982;8.560;2023-07-13T13:13:37;111.72;;;58.33;;
58982;SDS011;44771;49.982;8.560;2023-07-13T13:18:40;20.42;;;19.42;;
58982;SDS011;44771;49.982;8.560;2023-07-13T13:23:42;17.95;;;17.05;;
58982;SDS011;44771;49.982;8.560;2023-07-13T13:28:44;18.73;;;17.27;;
58982;SDS011;44771;49.982;8.560;2023-07-13T13:33:47;19.33;;;18.02;;
58982;SDS011;44771;49.982;8.560;2023-07-13T13:38:50;21.33;;;20.15;;
58982;SDS011;44771;49.982;8.560;2023-07-13T13:43:51;22.00;;;20.92;;
58982;SDS011;44771;49.982;8.560;2023-07-13T13:48:54;26.85;;;25.45;;
58982;SDS011;44771;49.982;8.560;2023-07-13T13:53:56;24.58;;;23.33;;
58982;SDS011;44771;49.982;8.560;2023-07-13T13:58:58;26.70;;;25.40;;
58982;SDS011;44771;49.982;8.560;2023-07-13T14:04:01;20.37;;;19.30;;
58982;SDS011;44771;49.982;8.560;2023-07-13T14:09:04;22.05;;;20.85;;
58982;SDS011;44771;49.982;8.560;2023-07-13T14:14:12;21.35;;;20.02;;
58982;SDS011;44771;49.982;8.560;2023-07-13T14:19:18;20.45;;;19.17;;
58982;SDS011;44771;49.982;8.560;2023-07-13T14:24:21;557.65;;;289.73;;
58982;SDS011;44771;49.982;8.560;2023-07-13T14:29:22;21.65;;;20.55;;
58982;SDS011;44771;49.982;8.560;2023-07-13T14:34:26;22.20;;;21.02;;
58982;SDS011;44771;49.982;8.560;2023-07-13T14:39:28;28.20;;;24.73;;
58982;SDS011;44771;49.982;8.560;2023-07-13T14:44:30;21.02;;;19.87;;
58982;SDS011;44771;49.982;8.560;2023-07-13T14:49:35;16.95;;;16.05;;
58982;SDS011;44771;49.982;8.560;2023-07-13T14:54:38;107.40;;;60.25;;
58982;SDS011;44771;49.982;8.560;2023-07-13T14:59:40;23.20;;;21.73;;
58982;SDS011;44771;49.982;8.560;2023-07-13T15:04:44;23.15;;;21.75;;
58982;SDS011;44771;49.982;8.560;2023-07-13T15:09:46;23.42;;;22.08;;
58982;SDS011;44771;49.982;8.560;2023-07-13T15:14:48;23.92;;;22.73;;
58982;SDS011;44771;49.982;8.560;2023-07-13T15:19:51;24.17;;;23.02;;
58982;SDS011;44771;49.982;8.560;2023-07-13T15:24:53;24.55;;;23.15;;
58982;SDS011;44771;49.982;8.560;2023-07-13T15:29:56;26.10;;;24.52;;
58982;SDS011;44771;49.982;8.560;2023-07-13T15:35:00;27.02;;;25.52;;
58982;SDS011;44771;49.982;8.560;2023-07-13T15:40:01;29.77;;;28.27;;
58982;SDS011;44771;49.982;8.560;2023-07-13T15:45:04;26.85;;;25.55;;
58982;SDS011;44771;49.982;8.560;2023-07-13T15:50:11;28.42;;;26.98;;
58982;SDS011;44771;49.982;8.560;2023-07-13T15:55:14;32.33;;;30.70;;
58982;SDS011;44771;49.982;8.560;2023-07-13T16:00:20;30.95;;;29.37;;
58982;SDS011;44771;49.982;8.560;2023-07-13T16:05:25;26.37;;;25.10;;
58982;SDS011;44771;49.982;8.560;2023-07-13T16:10:29;25.15;;;23.58;;
58982;SDS011;44771;49.982;8.560;2023-07-13T16:15:33;26.08;;;24.77;;
58982;SDS011;44771;49.982;8.560;2023-07-13T16:20:36;24.58;;;23.17;;
58982;SDS011;44771;49.982;8.560;2023-07-13T16:25:42;22.58;;;21.48;;
58982;SDS011;44771;49.982;8.560;2023-07-13T16:30:44;27.40;;;26.00;;
58982;SDS011;44771;49.982;8.560;2023-07-13T16:35:47;26.75;;;25.37;;
58982;SDS011;44771;49.982;8.560;2023-07-13T16:40:49;25.67;;;24.27;;
58982;SDS011;44771;49.982;8.560;2023-07-13T16:45:51;23.02;;;21.60;;
58982;SDS011;44771;49.982;8.560;2023-07-13T16:50:56;24.63;;;23.42;;
58982;SDS011;44771;49.982;8.560;2023-07-13T16:55:58;25.65;;;24.27;;
58982;SDS011;44771;49.982;8.560;2023-07-13T17:01:01;42.42;;;38.78;;
58982;SDS011;44771;49.982;8.560;2023-07-13T17:06:12;20.62;;;19.05;;
58982;SDS011;44771;49.982;8.560;2023-07-13T17:11:22;19.87;;;18.67;;
58982;SDS011;44771;49.982;8.560;2023-07-13T17:16:24;23.42;;;22.10;;
58982;SDS011;44771;49.982;8.560;2023-07-13T17:21:27;26.70;;;25.30;;
58982;SDS011;44771;49.982;8.560;2023-07-13T17:26:29;20.98;;;19.95;;
58982;SDS011;44771;49.982;8.560;2023-07-13T17:31:30;15.52;;;14.70;;
58982;SDS011;44771;49.982;8.560;2023-07-13T17:36:33;39.72;;;37.70;;
58982;SDS011;44771;49.982;8.560;2023-07-13T17:41:35;26.37;;;24.75;;
58982;SDS011;44771;49.982;8.560;2023-07-13T17:46:37;22.08;;;20.90;;
58982;SDS011;44771;49.982;8.560;2023-07-13T17:51:40;21.35;;;20.25;;
58982;SDS011;44771;49.982;8.560;2023-07-13T17:56:42;22.10;;;20.62;;
58982;SDS011;44771;49.982;8.560;2023-07-13T18:01:44;20.88;;;19.87;;
58982;SDS011;44771;49.982;8.560;2023-07-13T18:06:48;20.15;;;19.05;;
58982;SDS011;44771;49.982;8.560;2023-07-13T18:11:52;22.35;;;21.12;;
58982;SDS011;44771;49.982;8.560;2023-07-13T18:16:55;23.58;;;22.37;;
58982;SDS011;44771;49.982;8.560;2023-07-13T18:22:01;35.55;;;33.78;;
58982;SDS011;44771;49.982;8.560;2023-07-13T18:32:06;42.92;;;40.72;;
58982;SDS011;44771;49.982;8.560;2023-07-13T18:37:17;31.80;;;30.25;;
58982;SDS011;44771;49.982;8.560;2023-07-13T18:42:21;32.47;;;30.77;;
58982;SDS011;44771;49.982;8.560;2023-07-13T18:47:23;36.90;;;33.80;;
58982;SDS011;44771;49.982;8.560;2023-07-13T18:52:26;27.13;;;25.67;;
58982;SDS011;44771;49.982;8.560;2023-07-13T18:57:28;21.15;;;20.00;;
58982;SDS011;44771;49.982;8.560;2023-07-13T19:02:29;26.00;;;24.52;;
58982;SDS011;44771;49.982;8.560;2023-07-13T19:07:33;31.23;;;29.60;;
58982;SDS011;44771;49.982;8.560;2023-07-13T19:12:35;24.33;;;23.00;;
58982;SDS011;44771;49.982;8.560;2023-07-13T19:17:36;21.50;;;19.55;;
58982;SDS011;44771;49.982;8.560;2023-07-13T19:22:40;27.50;;;26.00;;
58982;SDS011;44771;49.982;8.560;2023-07-13T19:27:42;24.15;;;22.37;;
58982;SDS011;44771;49.982;8.560;2023-07-13T19:32:44;21.95;;;20.70;;
58982;SDS011;44771;49.982;8.560;2023-07-13T19:37:47;19.77;;;18.60;;
58982;SDS011;44771;49.982;8.560;2023-07-13T19:42:49;18.33;;;17.25;;
58982;SDS011;44771;49.982;8.560;2023-07-13T19:47:51;1999.90;;;999.90;;
58982;SDS011;44771;49.982;8.560;2023-07-13T19:52:54;1999.90;;;999.90;;
58982;SDS011;44771;49.982;8.560;2023-07-13T19:57:56;1999.90;;;999.90;;
58982;SDS011;44771;49.982;8.560;2023-07-13T20:02:58;1999.90;;;999.90;;
58982;SDS011;44771;49.982;8.560;2023-07-13T20:08:04;1999.90;;;999.90;;
58982;SDS011;44771;49.982;8.560;2023-07-13T20:13:19;1999.90;;;999.90;;
58982;SDS011;44771;49.982;8.560;2023-07-13T20:18:21;18.12;;;17.12;;
58982;SDS011;44771;49.982;8.560;2023-07-13T20:23:24;178.48;;;69.95;;
58982;SDS011;44771;49.982;8.560;2023-07-13T20:28:26;26.37;;;24.98;;
58982;SDS011;44771;49.982;8.560;2023-07-13T20:33:28;22.08;;;20.92;;
58982;SDS011;44771;49.982;8.560;2023-07-13T20:38:32;47.25;;;39.63;;
58982;SDS011;44771;49.982;8.560;2023-07-13T20:43:34;344.27;;;71.37;;
58982;SDS011;44771;49.982;8.560;2023-07-13T20:48:36;317.33;;;134.77;;
58982;SDS011;44771;49.982;8.560;2023-07-13T20:53:41;29.98;;;28.52;;
58982;SDS011;44771;49.982;8.560;2023-07-13T20:58:44;54.50;;;51.05;;
58982;SDS011;44771;49.982;8.560;2023-07-13T21:03:45;51.55;;;48.40;;
58982;SDS011;44771;49.982;8.560;2023-07-13T21:08:49;1999.90;;;999.90;;
58982;SDS011;44771;49.982;8.560;2023-07-13T21:13:51;1999.90;;;999.90;;
58982;SDS011;44771;49.982;8.560;2023-07-13T21:18:56;1999.90;;;999.90;;
58982;SDS011;44771;49.982;8.560;2023-07-13T21:23:59;1999.90;;;999.90;;
58982;SDS011;44771;49.982;8.560;2023-07-13T21:29:01;1999.90;;;999.90;;
58982;SDS011;44771;49.982;8.560;2023-07-13T21:34:05;1079.80;;;543.40;;
58982;SDS011;44771;49.982;8.560;2023-07-13T21:39:12;16.70;;;15.90;;
58982;SDS011;44771;49.982;8.560;2023-07-13T21:44:19;17.12;;;16.33;;
58982;SDS011;44771;49.982;8.560;2023-07-13T21:49:25;19.70;;;18.70;;
58982;SDS011;44771;49.982;8.560;2023-07-13T21:54:28;18.77;;;17.67;;
58982;SDS011;44771;49.982;8.560;2023-07-13T21:59:30;21.42;;;20.35;;
58982;SDS011;44771;49.982;8.560;2023-07-13T22:04:32;19.17;;;17.90;;
58982;SDS011;44771;49.982;8.560;2023-07-13T22:09:35;19.35;;;18.27;;
58982;SDS011;44771;49.982;8.560;2023-07-13T22:14:37;22.58;;;20.98;;
58982;SDS011;44771;49.982;8.560;2023-07-13T22:19:38;26.55;;;25.05;;
58982;SDS011;44771;49.982;8.560;2023-07-13T22:24:41;30.02;;;28.52;;
58982;SDS011;44771;49.982;8.560;2023-07-13T22:29:43;24.90;;;23.52;;
58982;SDS011;44771;49.982;8.560;2023-07-13T22:34:45;25.80;;;24.10;;
58982;SDS011;44771;49.982;8.560;2023-07-13T22:39:48;26.67;;;25.27;;
58982;SDS011;44771;49.982;8.560;2023-07-13T22:44:50;508.48;;;102.38;;
58982;SDS011;44771;49.982;8.560;2023-07-13T22:49:52;21.67;;;20.50;;
58982;SDS011;44771;49.982;8.560;2023-07-13T22:54:55;21.48;;;20.23;;
58982;SDS011;44771;49.982;8.560;2023-07-13T22:59:56;0.30;;;0.30;;
58982;SDS011;44771;49.982;8.560;2023-07-13T23:04:58;24.80;;;23.50;;
58982;SDS011;44771;49.982;8.560;2023-07-13T23:10:04;34.65;;;32.58;;
58982;SDS011;44771;49.982;8.560;2023-07-13T23:15:17;1999.90;;;999.90;;
58982;SDS011;44771;49.982;8.560;2023-07-13T23:20:21;17.60;;;16.23;;
58982;SDS011;44771;49.982;8.560;2023-07-13T23:25:27;18.27;;;17.05;;
58982;SDS011;44771;49.982;8.560;2023-07-13T23:35:33;18.40;;;17.30;;
58982;SDS011;44771;49.982;8.560;2023-07-13T23:40:36;17.20;;;16.12;;
58982;SDS011;44771;49.982;8.560;2023-07-13T23:45:38;18.42;;;17.25;;
58982;SDS011;44771;49.982;8.560;2023-07-13T23:50:40;19.45;;;17.85;;
58982;SDS011;44771;49.982;8.560;2023-07-13T23:55:45;18.90;;;17.45;;
